Time;durP1;ratioP1;P1;durP2;ratioP2;P2;SDS_P1;SDS_P2;PMS_P1;PMS_P2;Temp;Humidity;BMP_temperature;BMP_pressure;BME280_temperature;BME280_humidity;BME280_pressure;Samples;Min_cycle;Max_cycle;Signal;HPM_P1;HPM_P2
2022/08/08 00:00:13;;;;;;;0.20;0.20;;;15.50;99.90;;;;;;5065886;28;20448;-79
2022/08/08 00:03:16;;;;;;;0.20;0.20;;;15.50;99.90;;;;;;5069806;28;20128;-79
2022/08/08 00:05:53;;;;;;;0.20;0.20;;;15.50;99.90;;;;;;5066452;28;20045;-79
2022/08/08 00:08:37;;;;;;;0.20;0.20;;;15.40;99.90;;;;;;5069084;28;20056;-79
2022/08/08 00:11:33;;;;;;;0.20;0.20;;;15.50;99.90;;;;;;5057366;28;20123;-79
2022/08/08 00:14:32;;;;;;;0.20;0.20;;;15.40;99.90;;;;;;5075536;28;20083;-79
2022/08/08 00:17:27;;;;;;;0.10;0.10;;;15.40;99.90;;;;;;5074134;28;20435;-79
2022/08/08 00:19:54;;;;;;;0.20;0.20;;;15.40;99.90;;;;;;5053195;28;20467;-80
2022/08/08 00:22:26;;;;;;;0.10;0.10;;;15.40;99.90;;;;;;5061364;28;20493;-79
2022/08/08 00:24:56;;;;;;;0.20;0.20;;;15.40;99.90;;;;;;5063290;28;20063;-79
2022/08/08 00:27:25;;;;;;;0.15;0.15;;;15.40;99.90;;;;;;5075555;28;20041;-80
2022/08/08 00:30:05;;;;;;;0.20;0.20;;;15.40;99.90;;;;;;5081582;28;20037;-79
2022/08/08 00:32:50;;;;;;;0.20;0.20;;;15.40;99.90;;;;;;5068378;28;20044;-79
2022/08/08 00:35:33;;;;;;;0.10;0.10;;;15.40;99.90;;;;;;5063219;28;20033;-79
2022/08/08 00:38:07;;;;;;;0.10;0.10;;;15.30;99.90;;;;;;5078766;28;20069;-79
2022/08/08 00:41:09;;;;;;;0.20;0.20;;;15.40;99.90;;;;;;5054486;28;20048;-79
2022/08/08 00:43:51;;;;;;;0.20;0.20;;;15.30;99.90;;;;;;5066051;28;20392;-79
2022/08/08 00:46:29;;;;;;;0.10;0.10;;;15.30;99.90;;;;;;5074753;28;20072;-79
2022/08/08 00:49:06;;;;;;;0.10;0.10;;;15.30;99.90;;;;;;5077468;28;20107;-79
2022/08/08 00:51:50;;;;;;;0.20;0.20;;;15.30;99.90;;;;;;5064971;28;20052;-79
2022/08/08 00:54:42;;;;;;;0.20;0.20;;;15.30;99.90;;;;;;5086101;28;20060;-79
2022/08/08 00:57:45;;;;;;;0.20;0.20;;;15.30;99.90;;;;;;5071920;28;20102;-79
2022/08/08 01:00:17;;;;;;;0.10;0.10;;;15.20;99.90;;;;;;5068836;28;20138;-78
2022/08/08 01:03:09;;;;;;;0.20;0.20;;;15.20;99.90;;;;;;5077294;28;20066;-78
2022/08/08 01:05:35;;;;;;;;;;;15.20;99.90;;;;;;5089768;28;20055;-79
2022/08/08 01:08:19;;;;;;;0.20;0.20;;;15.20;99.90;;;;;;5071172;28;19920;-79
2022/08/08 01:10:50;;;;;;;0.10;0.10;;;15.20;99.90;;;;;;5075674;28;20046;-79
2022/08/08 01:13:42;;;;;;;0.20;0.20;;;15.20;99.90;;;;;;5072347;28;20529;-79
2022/08/08 01:16:44;;;;;;;0.20;0.20;;;15.20;99.90;;;;;;5080480;28;20561;-79
2022/08/08 01:19:29;;;;;;;0.20;0.20;;;15.20;99.90;;;;;;5060347;28;20123;-79
2022/08/08 01:22:03;;;;;;;0.10;0.10;;;15.20;99.90;;;;;;5070396;28;20089;-79
2022/08/08 01:24:32;;;;;;;0.20;0.20;;;15.10;99.90;;;;;;5079554;28;20039;-79
2022/08/08 01:27:13;;;;;;;0.10;0.10;;;15.10;99.90;;;;;;5072902;28;20488;-79
2022/08/08 01:30:03;;;;;;;0.10;0.10;;;15.10;99.90;;;;;;5068151;28;20134;-79
2022/08/08 01:32:37;;;;;;;0.20;0.20;;;15.10;99.90;;;;;;5062757;28;20044;-79
2022/08/08 01:35:15;;;;;;;0.20;0.20;;;15.10;99.90;;;;;;5073580;28;20095;-79
2022/08/08 01:38:03;;;;;;;0.20;0.20;;;15.10;99.90;;;;;;5076474;28;20043;-79
2022/08/08 01:40:57;;;;;;;0.20;0.20;;;15.10;99.90;;;;;;5058666;28;20602;-79
2022/08/08 01:43:42;;;;;;;0.20;0.20;;;15.00;99.90;;;;;;5059776;28;20392;-78
2022/08/08 01:46:24;;;;;;;0.20;0.20;;;15.10;99.90;;;;;;5069896;28;20052;-78
2022/08/08 01:49:07;;;;;;;0.20;0.20;;;15.10;99.90;;;;;;5077593;28;20040;-79
2022/08/08 01:52:11;;;;;;;0.20;0.20;;;15.00;99.90;;;;;;5079915;28;20044;-79
2022/08/08 01:55:02;;;;;;;0.10;0.10;;;15.00;99.90;;;;;;5086953;28;20705;-79
2022/08/08 01:57:43;;;;;;;0.10;0.10;;;15.00;99.90;;;;;;5082301;28;20052;-77
2022/08/08 02:00:26;;;;;;;0.20;0.20;;;15.00;99.90;;;;;;5065604;28;20081;-78
2022/08/08 02:03:22;;;;;;;0.10;0.10;;;15.00;99.90;;;;;;5075763;28;20040;-78
2022/08/08 02:05:57;;;;;;;0.13;0.13;;;15.00;99.90;;;;;;5067173;28;20040;-78
2022/08/08 02:08:41;;;;;;;0.20;0.20;;;15.00;99.90;;;;;;5061289;28;20052;-78
2022/08/08 02:11:21;;;;;;;0.20;0.20;;;15.00;99.90;;;;;;5059348;28;20079;-78
2022/08/08 02:14:06;;;;;;;0.20;0.20;;;15.00;99.90;;;;;;5068433;28;20541;-78
2022/08/08 02:16:50;;;;;;;0.20;0.20;;;15.00;99.90;;;;;;5082758;28;20177;-78
2022/08/08 02:19:22;;;;;;;0.10;0.10;;;15.00;99.90;;;;;;5052917;28;20055;-78
2022/08/08 02:25:05;;;;;;;0.20;0.20;;;15.00;99.90;;;;;;5067499;28;20419;-78
2022/08/08 02:28:12;;;;;;;0.15;0.15;;;15.00;99.90;;;;;;5070730;28;20372;-78
2022/08/08 02:30:56;;;;;;;0.17;0.17;;;15.00;99.90;;;;;;5065887;28;20500;-78
2022/08/08 02:34:03;;;;;;;0.20;0.20;;;15.10;99.90;;;;;;5080039;28;20054;-78
2022/08/08 02:36:50;;;;;;;0.20;0.20;;;15.10;99.90;;;;;;5068298;28;20052;-78
2022/08/08 02:39:35;;;;;;;0.20;0.20;;;15.10;99.90;;;;;;5089166;28;20400;-77
2022/08/08 02:42:36;;;;;;;0.20;0.20;;;15.10;99.90;;;;;;5083218;28;20037;-78
2022/08/08 02:45:23;;;;;;;0.20;0.20;;;15.10;99.90;;;;;;5061388;28;20256;-78
2022/08/08 02:48:09;;;;;;;0.10;0.10;;;15.10;99.90;;;;;;5082230;28;20051;-78
2022/08/08 02:50:53;;;;;;;0.20;0.20;;;15.10;99.90;;;;;;5055565;28;20046;-78
2022/08/08 02:53:41;;;;;;;0.20;0.20;;;15.20;99.90;;;;;;5081515;28;20546;-78
2022/08/08 02:56:51;;;;;;;0.20;0.20;;;15.20;99.90;;;;;;5083811;28;20060;-78
2022/08/08 02:59:55;;;;;;;0.17;0.17;;;15.20;99.90;;;;;;5082838;28;20053;-79
2022/08/08 03:02:39;;;;;;;0.10;0.10;;;15.20;99.90;;;;;;5076055;28;20052;-78
2022/08/08 03:05:24;;;;;;;0.10;0.10;;;15.20;99.90;;;;;;5070732;28;20040;-78
2022/08/08 03:08:28;;;;;;;0.13;0.13;;;15.30;99.90;;;;;;5073539;28;20060;-77
2022/08/08 03:11:40;;;;;;;0.20;0.20;;;15.30;99.90;;;;;;5052132;28;20189;-78
2022/08/08 03:14:12;;;;;;;0.10;0.10;;;15.30;99.90;;;;;;5037045;28;20074;-79
2022/08/08 03:16:50;;;;;;;0.20;0.20;;;15.30;99.90;;;;;;5030412;28;20041;-78
2022/08/08 03:19:36;;;;;;;0.10;0.10;;;15.40;99.90;;;;;;5054692;28;20416;-78
2022/08/08 03:22:01;;;;;;;0.20;0.20;;;15.40;99.90;;;;;;5070270;28;20185;-78
2022/08/08 03:24:27;;;;;;;0.20;0.20;;;15.50;99.90;;;;;;5073437;28;20506;-78
2022/08/08 03:27:00;;;;;;;0.20;0.20;;;15.50;99.90;;;;;;5079284;28;20044;-78
2022/08/08 03:29:34;;;;;;;0.10;0.10;;;15.60;99.90;;;;;;5069776;28;20112;-78
2022/08/08 03:34:43;;;;;;;0.10;0.10;;;15.60;99.90;;;;;;5083152;28;20075;-78
2022/08/08 03:37:18;;;;;;;0.20;0.20;;;15.60;99.90;;;;;;5073264;28;20384;-79
2022/08/08 03:39:45;;;;;;;0.20;0.20;;;15.70;99.90;;;;;;5081524;28;20408;-78
2022/08/08 03:42:15;;;;;;;0.20;0.20;;;15.60;99.90;;;;;;5091636;28;20519;-78
2022/08/08 03:44:41;;;;;;;0.10;0.10;;;15.70;99.90;;;;;;5067068;28;20064;-78
2022/08/08 03:47:07;;;;;;;0.20;0.20;;;15.70;99.90;;;;;;5079448;28;20082;-78
2022/08/08 03:49:32;;;;;;;0.10;0.10;;;15.70;99.90;;;;;;5075029;28;20131;-79
2022/08/08 03:51:58;;;;;;;0.20;0.20;;;15.70;99.90;;;;;;5088177;28;20043;-78
2022/08/08 03:54:24;;;;;;;0.20;0.20;;;15.70;99.90;;;;;;5071282;28;20097;-79
2022/08/08 03:56:51;;;;;;;0.10;0.10;;;15.80;99.90;;;;;;5082420;28;20082;-78
2022/08/08 03:59:17;;;;;;;0.15;0.15;;;15.80;99.90;;;;;;5070110;28;20465;-79
2022/08/08 04:01:43;;;;;;;0.17;0.17;;;15.90;99.90;;;;;;5078854;28;20056;-79
2022/08/08 04:04:10;;;;;;;0.20;0.20;;;15.80;99.90;;;;;;5068155;28;20119;-78
2022/08/08 04:06:37;;;;;;;0.20;0.20;;;15.90;99.90;;;;;;5076480;28;20056;-78
2022/08/08 04:09:06;;;;;;;0.17;0.17;;;15.90;99.90;;;;;;5062975;28;20044;-78
2022/08/08 04:11:32;;;;;;;0.20;0.20;;;15.90;99.90;;;;;;5080093;28;20078;-78
2022/08/08 04:13:58;;;;;;;0.10;0.10;;;15.90;99.90;;;;;;5082693;28;20087;-78
2022/08/08 04:16:25;;;;;;;0.10;0.10;;;15.90;99.90;;;;;;5069181;28;20045;-78
2022/08/08 04:18:53;;;;;;;0.10;0.10;;;15.90;99.90;;;;;;5081529;28;20036;-78
2022/08/08 04:21:19;;;;;;;0.20;0.20;;;15.90;99.90;;;;;;5071269;28;20173;-79
2022/08/08 04:23:44;;;;;;;0.20;0.20;;;15.90;99.90;;;;;;5078090;28;20082;-78
2022/08/08 04:26:10;;;;;;;0.20;0.20;;;16.00;99.90;;;;;;5081162;28;21636;-79
2022/08/08 04:28:37;;;;;;;0.10;0.10;;;16.00;99.90;;;;;;5077893;28;20040;-78
2022/08/08 04:31:03;;;;;;;0.10;0.10;;;16.00;99.90;;;;;;5079126;28;20048;-78
2022/08/08 04:33:29;;;;;;;0.20;0.20;;;16.00;99.90;;;;;;5069196;28;20081;-79
2022/08/08 04:35:54;;;;;;;0.15;0.15;;;16.00;99.90;;;;;;5073762;28;20476;-79
2022/08/08 04:38:20;;;;;;;0.15;0.15;;;16.00;99.90;;;;;;5074627;28;20044;-79
2022/08/08 04:40:46;;;;;;;0.20;0.20;;;16.00;99.90;;;;;;5070681;28;20067;-79
2022/08/08 04:43:11;;;;;;;0.10;0.10;;;16.00;99.90;;;;;;5083727;28;20032;-79
2022/08/08 04:45:37;;;;;;;0.20;0.20;;;16.00;99.90;;;;;;5075703;28;20048;-78
2022/08/08 04:48:04;;;;;;;0.20;0.20;;;16.00;99.90;;;;;;5069261;28;20109;-78
2022/08/08 04:50:29;;;;;;;0.20;0.20;;;16.00;99.90;;;;;;5079194;28;20041;-79
2022/08/08 04:52:55;;;;;;;0.10;0.10;;;16.10;99.90;;;;;;5077246;28;20582;-79
2022/08/08 04:55:21;;;;;;;0.20;0.20;;;16.00;99.90;;;;;;5089521;28;20043;-78
2022/08/08 04:57:47;;;;;;;0.10;0.10;;;16.00;99.90;;;;;;5062103;28;20053;-79
2022/08/08 05:00:13;;;;;;;0.20;0.20;;;16.00;99.90;;;;;;5059726;28;20050;-78
2022/08/08 05:02:39;;;;;;;0.20;0.20;;;15.90;99.90;;;;;;5081687;28;20048;-78
2022/08/08 05:05:04;;;;;;;0.20;0.20;;;16.00;99.90;;;;;;5059792;28;20373;-78
2022/08/08 05:07:30;;;;;;;0.13;0.13;;;16.00;99.90;;;;;;5074042;28;20054;-78
2022/08/08 05:09:56;;;;;;;0.10;0.10;;;16.00;99.90;;;;;;5060190;28;20044;-78
2022/08/08 05:12:22;;;;;;;0.10;0.10;;;16.00;99.90;;;;;;5078811;28;20127;-79
2022/08/08 05:14:48;;;;;;;0.20;0.20;;;16.00;99.90;;;;;;5067968;28;20370;-78
2022/08/08 05:17:13;;;;;;;0.10;0.10;;;16.00;99.90;;;;;;5069549;28;20535;-79
2022/08/08 05:19:39;;;;;;;0.17;0.17;;;16.00;99.90;;;;;;5067731;28;20051;-79
2022/08/08 05:22:09;;;;;;;0.17;0.17;;;16.00;99.90;;;;;;5087050;28;20451;-79
2022/08/08 05:24:35;;;;;;;0.10;0.10;;;16.00;99.90;;;;;;5066710;28;20686;-79
2022/08/08 05:27:01;;;;;;;0.20;0.20;;;16.10;99.90;;;;;;5061554;28;20048;-79
2022/08/08 05:29:27;;;;;;;0.20;0.20;;;16.10;99.90;;;;;;5076861;28;20044;-79
2022/08/08 05:31:52;;;;;;;0.13;0.13;;;16.00;99.90;;;;;;5054651;28;20499;-79
2022/08/08 05:34:21;;;;;;;0.20;0.20;;;16.10;99.90;;;;;;5065690;28;20141;-79
2022/08/08 05:36:53;;;;;;;;;;;16.20;99.90;;;;;;5066875;28;20045;-79
2022/08/08 05:39:21;;;;;;;0.10;0.10;;;16.20;99.90;;;;;;5073045;28;19927;-79
2022/08/08 05:41:50;;;;;;;0.20;0.20;;;16.20;99.90;;;;;;5058066;28;20028;-79
2022/08/08 05:44:20;;;;;;;0.17;0.17;;;16.20;99.90;;;;;;5065656;28;20083;-79
2022/08/08 05:46:46;;;;;;;0.10;0.10;;;16.30;99.90;;;;;;5064206;28;20033;-79
2022/08/08 05:49:13;;;;;;;0.20;0.20;;;16.30;99.90;;;;;;5076170;28;20052;-79
2022/08/08 05:51:39;;;;;;;0.10;0.10;;;16.30;99.90;;;;;;5076094;28;20040;-79
2022/08/08 05:54:06;;;;;;;0.20;0.20;;;16.30;99.90;;;;;;5064340;28;20115;-79
2022/08/08 05:56:38;;;;;;;0.10;0.10;;;16.30;99.90;;;;;;5070613;28;20136;-79
2022/08/08 05:59:05;;;;;;;0.10;0.10;;;16.30;99.90;;;;;;5062502;28;20033;-79
2022/08/08 06:01:31;;;;;;;0.20;0.20;;;16.40;99.90;;;;;;5063917;28;20076;-79
2022/08/08 06:04:03;;;;;;;0.20;0.20;;;16.40;99.90;;;;;;5070704;28;20076;-79
2022/08/08 06:06:30;;;;;;;0.20;0.20;;;16.40;99.90;;;;;;5069098;28;20044;-79
2022/08/08 06:09:02;;;;;;;0.20;0.20;;;16.50;99.90;;;;;;5065448;28;20045;-79
2022/08/08 06:11:31;;;;;;;;;;;16.50;99.90;;;;;;5070851;28;20040;-79
2022/08/08 06:13:59;;;;;;;0.20;0.20;;;16.50;99.90;;;;;;5062883;28;19920;-79
2022/08/08 06:16:25;;;;;;;0.20;0.20;;;16.60;99.90;;;;;;5066625;28;20071;-79
2022/08/08 06:18:53;;;;;;;0.20;0.20;;;16.60;99.90;;;;;;5066325;28;20041;-79
2022/08/08 06:21:19;;;;;;;0.20;0.20;;;16.70;99.90;;;;;;5058145;28;20481;-79
2022/08/08 06:23:45;;;;;;;0.10;0.10;;;16.70;99.90;;;;;;5061617;28;20028;-79
2022/08/08 06:26:11;;;;;;;0.10;0.10;;;16.70;99.90;;;;;;5051055;28;20049;-79
2022/08/08 06:28:46;;;;;;;0.20;0.20;;;16.80;99.90;;;;;;5050723;28;20040;-79
2022/08/08 06:31:16;;;;;;;0.20;0.20;;;16.90;99.90;;;;;;5058666;28;20477;-80
2022/08/08 06:34:03;;;;;;;0.15;0.15;;;16.90;99.90;;;;;;5065265;28;20044;-79
2022/08/08 06:36:40;;;;;;;0.20;0.20;;;17.00;99.90;;;;;;5052283;28;20123;-80
2022/08/08 06:39:10;;;;;;;0.20;0.20;;;17.00;99.90;;;;;;5067569;28;20476;-80
2022/08/08 06:41:58;;;;;;;0.20;0.20;;;17.10;99.90;;;;;;5083718;28;20476;-80
2022/08/08 06:44:25;;;;;;;0.20;0.20;;;17.20;99.90;;;;;;5085210;28;20050;-79
2022/08/08 06:46:52;;;;;;;0.20;0.20;;;17.20;99.90;;;;;;5078304;28;20484;-80
2022/08/08 06:49:18;;;;;;;0.20;0.20;;;17.30;99.90;;;;;;5050392;28;20041;-79
2022/08/08 06:51:44;;;;;;;0.15;0.15;;;17.40;99.90;;;;;;5058612;28;20476;-80
2022/08/08 06:54:10;;;;;;;0.10;0.10;;;17.40;99.90;;;;;;5048969;28;20040;-80
2022/08/08 06:56:36;;;;;;;0.20;0.20;;;17.50;99.90;;;;;;5058750;28;20036;-80
2022/08/08 06:59:03;;;;;;;0.20;0.20;;;17.50;99.90;;;;;;5072869;28;20053;-80
2022/08/08 07:01:35;;;;;;;0.20;0.20;;;17.50;99.90;;;;;;5062638;28;20044;-80
2022/08/08 07:04:47;;;;;;;0.20;0.20;;;17.60;99.90;;;;;;5050584;28;20085;-79
2022/08/08 07:07:18;;;;;;;0.10;0.10;;;17.70;99.90;;;;;;5045047;28;20088;-80
2022/08/08 07:10:04;;;;;;;0.20;0.20;;;17.70;99.90;;;;;;5070461;28;20044;-79
2022/08/08 07:12:40;;;;;;;0.10;0.10;;;17.80;99.90;;;;;;5068969;28;20105;-80
2022/08/08 07:15:15;;;;;;;0.20;0.20;;;17.90;99.90;;;;;;5056464;28;20187;-80
2022/08/08 07:17:49;;;;;;;0.13;0.13;;;17.90;99.90;;;;;;5067989;28;20679;-80
2022/08/08 07:20:27;;;;;;;0.10;0.10;;;18.00;99.90;;;;;;5071359;28;20054;-79
2022/08/08 07:23:30;;;;;;;0.20;0.20;;;18.10;99.90;;;;;;5069928;28;20063;-80
2022/08/08 07:26:01;;;;;;;0.10;0.10;;;18.10;99.90;;;;;;5063637;28;20475;-79
2022/08/08 07:28:28;;;;;;;0.20;0.20;;;18.20;99.90;;;;;;5069698;28;20043;-79
2022/08/08 07:30:54;;;;;;;0.20;0.20;;;18.20;99.90;;;;;;5083081;28;20503;-78
2022/08/08 07:33:23;;;;;;;0.10;0.10;;;18.20;99.90;;;;;;5064039;28;20044;-78
2022/08/08 07:35:49;;;;;;;0.20;0.20;;;18.20;99.90;;;;;;5061075;28;20396;-78
2022/08/08 07:38:18;;;;;;;0.20;0.20;;;18.20;99.90;;;;;;5052855;28;20049;-78
2022/08/08 07:40:45;;;;;;;0.20;0.20;;;18.30;99.90;;;;;;5083641;28;20131;-78
2022/08/08 07:43:12;;;;;;;0.15;0.15;;;18.30;99.90;;;;;;5066896;28;20037;-79
2022/08/08 07:45:39;;;;;;;0.10;0.10;;;18.30;99.90;;;;;;5076498;28;20463;-79
2022/08/08 07:48:05;;;;;;;0.13;0.13;;;18.40;99.90;;;;;;5079591;28;20053;-78
2022/08/08 07:50:32;;;;;;;0.10;0.10;;;18.40;99.90;;;;;;5071652;28;20129;-78
2022/08/08 07:53:18;;;;;;;0.10;0.10;;;18.50;99.90;;;;;;5063602;28;20051;-79
2022/08/08 07:55:47;;;;;;;0.10;0.10;;;18.50;99.90;;;;;;5070377;28;20097;-79
2022/08/08 07:58:41;;;;;;;0.20;0.20;;;18.60;99.90;;;;;;5091010;28;20051;-79
2022/08/08 08:01:10;;;;;;;0.10;0.10;;;18.60;99.90;;;;;;5070864;28;20044;-80
2022/08/08 08:03:41;;;;;;;0.20;0.20;;;18.70;99.90;;;;;;5063557;28;20475;-80
2022/08/08 08:06:10;;;;;;;0.20;0.20;;;18.70;99.90;;;;;;5066917;28;20055;-79
2022/08/08 08:08:39;;;;;;;0.10;0.10;;;18.80;99.90;;;;;;5055921;28;20045;-80
2022/08/08 08:11:12;;;;;;;0.20;0.20;;;18.90;99.90;;;;;;5072516;28;20049;-80
2022/08/08 08:13:57;;;;;;;0.17;0.17;;;19.00;99.90;;;;;;5058320;28;20036;-80
2022/08/08 08:16:25;;;;;;;0.10;0.10;;;19.20;99.90;;;;;;5068135;28;20051;-80
2022/08/08 08:19:11;;;;;;;0.20;0.20;;;19.30;99.90;;;;;;5058109;28;20120;-80
2022/08/08 08:21:42;;;;;;;0.10;0.10;;;19.40;99.90;;;;;;5051568;28;20057;-80
2022/08/08 08:24:08;;;;;;;0.10;0.10;;;19.50;99.90;;;;;;5056371;28;20571;-79
2022/08/08 08:26:34;;;;;;;0.13;0.13;;;19.50;99.90;;;;;;5067959;28;20119;-79
2022/08/08 08:28:59;;;;;;;0.20;0.20;;;19.60;99.90;;;;;;5068715;28;20055;-80
2022/08/08 08:31:26;;;;;;;0.20;0.20;;;19.50;99.90;;;;;;5069595;28;20052;-80
2022/08/08 08:33:51;;;;;;;0.20;0.20;;;19.60;99.90;;;;;;5057197;28;20076;-81
2022/08/08 08:36:17;;;;;;;0.10;0.10;;;19.50;99.90;;;;;;5070878;28;20475;-79
2022/08/08 08:38:44;;;;;;;0.20;0.20;;;19.50;99.90;;;;;;5070970;28;20097;-80
2022/08/08 08:41:11;;;;;;;0.20;0.20;;;19.50;99.90;;;;;;5059758;28;20115;-81
2022/08/08 08:43:38;;;;;;;0.10;0.10;;;19.50;99.90;;;;;;5053093;28;20047;-79
2022/08/08 08:46:08;;;;;;;0.20;0.20;;;19.40;99.90;;;;;;5058010;28;20045;-79
2022/08/08 08:48:34;;;;;;;0.20;0.20;;;19.50;99.90;;;;;;5068132;28;20047;-80
2022/08/08 08:51:01;;;;;;;0.20;0.20;;;19.50;99.90;;;;;;5069574;28;20084;-80
2022/08/08 08:53:27;;;;;;;0.20;0.20;;;19.50;99.90;;;;;;5063084;28;20049;-79
2022/08/08 08:55:56;;;;;;;0.10;0.10;;;19.50;99.90;;;;;;5070982;28;20106;-79
2022/08/08 08:58:43;;;;;;;0.20;0.20;;;19.60;99.90;;;;;;5067567;28;20574;-78
2022/08/08 09:01:13;;;;;;;0.20;0.20;;;19.60;99.90;;;;;;5068662;28;20151;-81
2022/08/08 09:03:41;;;;;;;0.17;0.17;;;19.60;99.90;;;;;;5069654;28;20125;-81
2022/08/08 09:06:10;;;;;;;0.20;0.20;;;19.70;99.90;;;;;;5065148;28;20048;-81
2022/08/08 09:08:42;;;;;;;0.20;0.20;;;19.70;99.90;;;;;;5074209;28;20105;-81
2022/08/08 09:11:09;;;;;;;0.10;0.10;;;19.70;99.90;;;;;;5063548;28;20053;-81
2022/08/08 09:13:38;;;;;;;0.20;0.20;;;19.70;99.90;;;;;;5061754;28;20029;-95
2022/08/08 09:16:04;;;;;;;0.10;0.10;;;19.80;99.90;;;;;;5072727;28;20052;-95
2022/08/08 09:18:30;;;;;;;0.20;0.20;;;19.90;99.90;;;;;;5078540;28;20577;-95
2022/08/08 09:20:57;;;;;;;0.20;0.20;;;19.90;99.90;;;;;;5081376;28;20100;-93
2022/08/08 09:23:24;;;;;;;0.10;0.10;;;20.00;99.90;;;;;;5076939;28;20040;-94
2022/08/08 09:25:55;;;;;;;0.20;0.20;;;20.00;99.90;;;;;;5077937;28;20388;-95
2022/08/08 09:28:26;;;;;;;0.17;0.17;;;20.10;99.90;;;;;;5080917;28;20053;-95
2022/08/08 09:30:52;;;;;;;0.20;0.20;;;20.10;99.90;;;;;;5083656;28;20048;-91
2022/08/08 09:33:24;;;;;;;0.10;0.10;;;20.20;99.90;;;;;;5071779;28;20044;-93
2022/08/08 09:35:51;;;;;;;0.20;0.20;;;20.20;99.90;;;;;;5081982;28;20106;-93
2022/08/08 09:38:38;;;;;;;0.20;0.20;;;20.30;99.90;;;;;;5077634;28;20051;-94
2022/08/08 09:41:05;;;;;;;0.20;0.20;;;20.40;99.90;;;;;;5066067;28;20124;-95
2022/08/08 09:43:35;;;;;;;0.20;0.20;;;20.40;99.90;;;;;;5081363;28;20048;-94
2022/08/08 09:46:04;;;;;;;0.20;0.20;;;20.50;99.90;;;;;;5068413;28;20044;-92
2022/08/08 09:48:33;;;;;;;0.20;0.20;;;20.50;99.90;;;;;;5071554;28;20044;-91
2022/08/08 09:51:01;;;;;;;0.10;0.10;;;20.60;99.90;;;;;;5079183;28;20085;-92
2022/08/08 09:53:40;;;;;;;0.20;0.20;;;20.60;99.90;;;;;;5077902;28;20045;-92
2022/08/08 09:56:08;;;;;;;0.20;0.20;;;20.70;99.90;;;;;;5061120;28;20481;-92
2022/08/08 09:58:38;;;;;;;0.20;0.20;;;20.70;99.90;;;;;;5071291;28;20127;-92
2022/08/08 10:01:08;;;;;;;0.20;0.20;;;20.80;99.90;;;;;;5065861;28;20056;-91
2022/08/08 10:03:35;;;;;;;0.20;0.20;;;20.80;99.90;;;;;;5062038;28;20476;-95
2022/08/08 10:06:14;;;;;;;0.15;0.15;;;20.80;99.90;;;;;;5072172;28;20033;-91
2022/08/08 10:08:46;;;;;;;0.20;0.20;;;20.90;99.90;;;;;;5066750;28;20040;-87
2022/08/08 10:11:19;;;;;;;0.20;0.20;;;20.90;99.90;;;;;;5069239;28;20058;-93
2022/08/08 10:14:01;;;;;;;0.15;0.15;;;20.90;99.90;;;;;;5057230;28;20053;-90
2022/08/08 10:16:38;;;;;;;0.13;0.13;;;21.00;99.90;;;;;;5073705;28;20041;-96
2022/08/08 10:19:06;;;;;;;0.20;0.20;;;21.10;99.90;;;;;;5058808;28;20330;-93
2022/08/08 10:21:36;;;;;;;0.20;0.20;;;21.20;99.90;;;;;;5059257;28;20114;-93
2022/08/08 10:24:05;;;;;;;0.20;0.20;;;21.30;99.90;;;;;;5074351;28;20048;-93
2022/08/08 10:26:36;;;;;;;0.20;0.20;;;21.30;99.90;;;;;;5074775;28;20385;-93
2022/08/08 10:29:05;;;;;;;0.20;0.20;;;21.60;99.90;;;;;;5081593;28;20041;-95
2022/08/08 10:34:21;;;;;;;0.20;0.20;;;21.60;99.90;;;;;;5060803;28;20032;-93
2022/08/08 10:36:51;;;;;;;0.20;0.20;;;21.50;99.90;;;;;;5062366;28;20040;-95
2022/08/08 10:39:23;;;;;;;0.20;0.20;;;21.60;99.90;;;;;;5061846;28;20672;-88
2022/08/08 10:41:59;;;;;;;0.20;0.20;;;21.60;99.90;;;;;;5077407;28;20076;-95
2022/08/08 10:44:37;;;;;;;0.20;0.20;;;21.50;99.90;;;;;;5082638;28;20025;-90
2022/08/08 10:47:17;;;;;;;0.13;0.13;;;21.60;99.90;;;;;;5082456;28;20041;-80
2022/08/08 10:49:51;;;;;;;0.20;0.20;;;21.50;99.90;;;;;;5071986;28;20051;-91
2022/08/08 10:52:30;;;;;;;0.10;0.10;;;21.50;99.90;;;;;;5071748;28;20190;-95
2022/08/08 10:54:58;;;;;;;0.20;0.20;;;21.50;99.90;;;;;;5078472;28;20048;-94
2022/08/08 10:57:27;;;;;;;0.20;0.20;;;21.50;99.90;;;;;;5075579;28;20170;-94
2022/08/08 10:59:57;;;;;;;0.20;0.20;;;21.50;99.90;;;;;;5070892;28;20037;-81
2022/08/08 11:02:29;;;;;;;0.20;0.20;;;21.50;99.90;;;;;;5065525;28;20066;-95
2022/08/08 11:05:00;;;;;;;0.20;0.20;;;21.50;99.90;;;;;;5071614;28;20572;-93
2022/08/08 11:07:31;;;;;;;0.20;0.20;;;21.60;99.90;;;;;;5079792;28;20083;-91
2022/08/08 11:10:12;;;;;;;0.20;0.20;;;21.60;99.90;;;;;;5073110;28;20055;-96
2022/08/08 11:13:00;;;;;;;0.25;0.25;;;21.60;99.90;;;;;;5071336;28;20060;-95
2022/08/08 11:15:30;;;;;;;0.20;0.20;;;21.60;99.90;;;;;;5061980;28;20129;-90
2022/08/08 11:17:56;;;;;;;0.20;0.20;;;21.60;99.90;;;;;;5069507;28;20080;-93
2022/08/08 11:20:27;;;;;;;0.28;0.28;;;21.60;99.90;;;;;;5063590;28;20043;-91
2022/08/08 11:22:55;;;;;;;0.20;0.20;;;21.60;99.90;;;;;;5061600;28;20057;-94
2022/08/08 11:25:30;;;;;;;0.20;0.20;;;21.70;99.90;;;;;;5059324;28;20052;-92
2022/08/08 11:27:58;;;;;;;0.20;0.20;;;21.70;99.90;;;;;;5073602;28;20151;-93
2022/08/08 11:30:27;;;;;;;0.20;0.20;;;21.70;99.90;;;;;;5071341;28;20037;-94
2022/08/08 11:32:55;;;;;;;0.20;0.20;;;21.70;99.90;;;;;;5066749;28;20173;-94
2022/08/08 11:35:22;;;;;;;0.20;0.20;;;21.70;99.90;;;;;;5065818;28;20257;-92
2022/08/08 11:37:48;;;;;;;0.10;0.10;;;21.70;99.90;;;;;;5058408;28;20130;-93
2022/08/08 11:40:14;;;;;;;0.20;0.20;;;21.70;99.90;;;;;;5090898;28;20072;-95
2022/08/08 11:42:42;;;;;;;0.13;0.13;;;21.70;99.90;;;;;;5079840;28;20040;-90
2022/08/08 11:45:09;;;;;;;0.20;0.20;;;21.70;99.90;;;;;;5071062;28;20048;-93
2022/08/08 11:47:36;;;;;;;0.20;0.20;;;21.70;99.90;;;;;;5072926;28;20028;-96
2022/08/08 11:50:08;;;;;;;0.20;0.20;;;21.70;99.90;;;;;;5084159;28;20048;-93
2022/08/08 11:52:35;;;;;;;0.20;0.20;;;21.70;99.90;;;;;;5075443;28;20468;-83
2022/08/08 11:55:01;;;;;;;0.20;0.20;;;21.70;99.90;;;;;;5074671;28;20044;-92
2022/08/08 11:57:28;;;;;;;0.20;0.20;;;21.70;99.90;;;;;;5073035;28;20055;-89
2022/08/08 11:59:56;;;;;;;0.20;0.20;;;21.60;99.90;;;;;;5072961;28;20037;-94
2022/08/08 12:02:25;;;;;;;0.20;0.20;;;21.70;99.90;;;;;;5073571;28;20615;-90
2022/08/08 12:05:08;;;;;;;0.10;0.10;;;21.70;99.90;;;;;;5058803;28;20056;-91
2022/08/08 12:07:53;;;;;;;0.20;0.20;;;21.70;99.90;;;;;;5071917;28;20037;-92
2022/08/08 12:10:22;;;;;;;0.20;0.20;;;21.70;99.90;;;;;;5079891;28;20052;-92
2022/08/08 12:12:50;;;;;;;0.20;0.20;;;21.70;99.90;;;;;;5072337;28;20048;-95
2022/08/08 12:15:31;;;;;;;0.20;0.20;;;21.70;99.90;;;;;;5072040;28;20742;-93
2022/08/08 12:17:56;;;;;;;;;;;21.90;99.90;;;;;;5067752;28;20098;-96
2022/08/08 12:20:22;;;;;;;0.20;0.20;;;21.90;99.90;;;;;;5087155;28;20010;-91
2022/08/08 12:22:52;;;;;;;0.10;0.10;;;21.90;99.90;;;;;;5078893;28;20029;-90
2022/08/08 12:25:26;;;;;;;0.20;0.20;;;21.80;99.90;;;;;;5091554;28;20033;-92
2022/08/08 12:28:11;;;;;;;0.20;0.20;;;21.90;99.90;;;;;;5081752;28;20029;-95
2022/08/08 12:30:37;;;;;;;0.20;0.20;;;22.00;99.90;;;;;;5078034;28;20032;-91
2022/08/08 12:33:02;;;;;;;0.10;0.10;;;22.10;99.90;;;;;;5080874;28;20438;-96
2022/08/08 12:35:38;;;;;;;0.20;0.20;;;22.20;99.90;;;;;;5078829;28;20094;-93
2022/08/08 12:38:06;;;;;;;0.20;0.20;;;22.30;99.70;;;;;;5072243;28;20120;-93
2022/08/08 12:40:43;;;;;;;0.20;0.20;;;22.30;99.60;;;;;;5085620;28;20132;-95
2022/08/08 12:43:10;;;;;;;0.20;0.20;;;22.30;99.50;;;;;;5070691;28;20106;-91
2022/08/08 12:45:39;;;;;;;0.20;0.20;;;22.30;99.10;;;;;;5076270;28;20045;-93
2022/08/08 12:48:19;;;;;;;0.20;0.20;;;22.30;99.30;;;;;;5066802;28;20488;-90
2022/08/08 12:50:53;;;;;;;0.20;0.20;;;22.30;99.50;;;;;;5061313;28;20075;-93
2022/08/08 12:53:20;;;;;;;0.20;0.20;;;22.30;99.60;;;;;;5065374;28;20047;-90
2022/08/08 12:55:53;;;;;;;0.10;0.10;;;22.30;99.30;;;;;;5056826;28;20044;-91
2022/08/08 12:58:18;;;;;;;0.10;0.10;;;22.40;99.70;;;;;;5068052;28;20069;-92
2022/08/08 13:00:44;;;;;;;0.10;0.10;;;22.60;99.90;;;;;;5077825;28;20107;-91
2022/08/08 13:03:25;;;;;;;0.20;0.20;;;22.80;99.50;;;;;;5073274;28;20052;-93
2022/08/08 13:06:17;;;;;;;0.20;0.20;;;23.00;99.30;;;;;;5075970;28;20055;-87
2022/08/08 13:08:42;;;;;;;0.20;0.20;;;23.10;98.60;;;;;;5064377;28;20523;-95
2022/08/08 13:11:37;;;;;;;0.10;0.10;;;23.10;98.50;;;;;;5063708;28;20063;-90
2022/08/08 13:14:11;;;;;;;0.20;0.20;;;23.20;98.10;;;;;;5095137;28;20404;-93
2022/08/08 13:16:41;;;;;;;0.20;0.20;;;23.20;97.90;;;;;;5058309;28;20053;-93
2022/08/08 13:19:09;;;;;;;0.20;0.20;;;23.10;97.60;;;;;;5063941;28;20467;-90
2022/08/08 13:21:47;;;;;;;0.20;0.20;;;23.00;97.70;;;;;;5062674;28;20040;-93
2022/08/08 13:24:13;;;;;;;0.20;0.20;;;23.00;97.80;;;;;;5072074;28;20049;-90
2022/08/08 13:26:39;;;;;;;0.17;0.17;;;23.00;98.00;;;;;;5070971;28;20060;-96
2022/08/08 13:29:12;;;;;;;0.20;0.20;;;23.00;98.00;;;;;;5072877;28;20040;-95